Terminal Aerodrome Forecast
Issued by NWS

Home | Current Version | Previous Version | Text Only | Print | Product List | Glossary On
Versions: 1 2 3 4 5 6 7 8 9 10 11 12 13 14 15 16 17 18 19
000
FTUS43 KICT 311138
TAFRSL
TAF
KRSL 311138Z 3112/0112 02010KT P6SM VCSH BKN080
      TEMPO 3112/3113 -RA BKN010
     FM311500 02010KT P6SM SCT025 BKN050=

USA.gov is the U.S. government's official web portal to all federal, state and local government web resources and services.